createdAt,value
2018-06-21T16:46:49.337Z,101162.31
2018-06-21T16:49:17.796Z,101181.48
2018-06-21T16:51:46.626Z,101192.75
2018-06-21T16:54:15.971Z,101203.74
2018-06-21T16:56:44.347Z,101202.75
2018-06-21T16:59:12.971Z,101198.99
2018-06-21T17:01:41.356Z,101197.39
2018-06-21T17:04:09.764Z,101204.00
2018-06-21T17:06:38.280Z,101206.41
2018-06-21T17:09:09.060Z,101214.56
2018-06-21T17:11:37.477Z,101200.77
2018-06-21T17:14:05.928Z,101204.41
2018-06-21T17:16:34.312Z,101201.72
2018-06-21T17:19:02.773Z,101202.38
2018-06-21T17:21:31.264Z,101201.65
2018-06-21T17:23:59.707Z,101196.59
2018-06-21T17:26:29.288Z,101195.09
2018-06-21T17:28:57.872Z,101208.85
2018-06-21T17:31:26.387Z,101198.27
2018-06-21T17:33:55.703Z,101209.89
2018-06-21T17:36:24.799Z,101203.09
2018-06-21T17:38:54.036Z,101207.83
2018-06-21T17:41:23.460Z,101217.91
2018-06-21T17:43:52.661Z,101214.20
2018-06-21T17:46:21.658Z,101217.32
2018-06-21T17:48:51.388Z,101220.73
2018-06-21T17:51:19.848Z,101216.95
2018-06-21T17:53:48.210Z,101218.16
2018-06-21T17:56:16.623Z,101222.86
2018-06-21T17:58:45.405Z,101217.05
2018-06-21T18:01:13.833Z,101228.23
2018-06-21T18:03:42.225Z,101225.49
2018-06-21T18:06:10.746Z,101221.19
2018-06-21T18:08:39.732Z,101219.93
2018-06-21T18:11:08.513Z,101227.22
2018-06-21T18:13:36.985Z,101231.91
2018-06-21T18:16:05.372Z,101232.16
2018-06-21T18:18:33.858Z,101226.53
2018-06-21T18:21:03.187Z,101225.62
2018-06-21T18:23:31.596Z,101227.04
2018-06-21T18:26:00.101Z,101220.55
2018-06-21T18:28:28.717Z,101227.33
2018-06-21T18:30:57.088Z,101229.54
2018-06-21T18:33:25.564Z,101246.22
2018-06-21T18:35:54.085Z,101268.72
2018-06-21T18:38:22.651Z,101262.53
2018-06-21T18:40:51.060Z,101257.84
2018-06-21T18:43:19.961Z,101256.23
2018-06-21T18:45:48.440Z,101254.70
2018-06-21T18:48:16.976Z,101260.55
2018-06-21T18:50:45.471Z,101259.75
2018-06-21T18:53:13.911Z,101252.91
2018-06-21T18:55:42.491Z,101251.56
2018-06-21T18:58:11.406Z,101250.34
2018-06-21T19:00:39.781Z,101262.20
2018-06-21T19:03:08.172Z,101260.44
2018-06-21T19:05:36.656Z,101256.16
2018-06-21T19:08:10.534Z,101261.42
2018-06-21T19:10:44.789Z,101268.00
2018-06-21T19:13:13.349Z,101269.34
2018-06-21T19:15:42.240Z,101275.92
2018-06-21T19:18:12.520Z,101276.42
2018-06-21T19:20:41.029Z,101279.09
2018-06-21T19:23:09.520Z,101285.20
2018-06-21T19:25:38.142Z,101287.03
2018-06-21T19:28:06.710Z,101289.67
2018-06-21T19:30:41.098Z,101296.70
2018-06-21T19:33:09.630Z,101295.88
2018-06-21T19:35:38.146Z,101297.19
2018-06-21T19:38:06.661Z,101299.89
2018-06-21T19:40:35.129Z,101307.77
2018-06-21T19:43:03.679Z,101309.62
2018-06-21T19:45:32.141Z,101302.21
2018-06-21T19:48:01.742Z,101315.72
2018-06-21T19:50:30.596Z,101312.69
2018-06-21T19:52:59.417Z,101317.94
2018-06-21T19:55:28.581Z,101325.84
2018-06-21T19:57:57.307Z,101321.47
2018-06-21T20:00:26.497Z,101321.94
2018-06-21T20:03:01.120Z,101320.25
2018-06-21T20:05:30.390Z,101324.64
2018-06-21T20:07:59.530Z,101333.81
2018-06-21T20:10:27.973Z,101337.34
2018-06-21T20:12:56.577Z,101334.74
2018-06-21T20:15:25.192Z,101339.06
2018-06-21T20:17:53.899Z,101338.20
2018-06-21T20:20:27.604Z,101342.16
2018-06-21T20:22:56.633Z,101343.94
2018-06-21T20:25:25.962Z,101342.71
2018-06-21T20:27:54.334Z,101345.40
2018-06-21T20:30:22.922Z,101341.55
2018-06-21T20:32:51.320Z,101345.92
2018-06-21T20:35:19.811Z,101350.34
2018-06-21T20:37:48.805Z,101344.67
2018-06-21T20:40:17.260Z,101344.74
2018-06-21T20:42:45.668Z,101344.77
2018-06-21T20:45:15.788Z,101351.76
2018-06-21T20:47:44.247Z,101360.50
2018-06-21T20:50:13.066Z,101353.58
2018-06-21T20:52:41.777Z,101353.61
2018-06-21T20:55:11.930Z,101354.05
2018-06-21T20:57:40.331Z,101357.97
2018-06-21T21:00:09.119Z,101358.49
2018-06-21T21:02:37.954Z,101356.75
2018-06-21T21:05:13.901Z,101357.24
2018-06-21T21:07:42.925Z,101360.30
2018-06-21T21:10:12.837Z,101363.38
2018-06-21T21:12:41.276Z,101360.31
2018-06-21T21:15:11.103Z,101364.27
2018-06-21T21:17:40.037Z,101366.91
2018-06-21T21:20:08.906Z,101369.14
2018-06-21T21:22:38.232Z,101372.63
2018-06-21T21:25:06.661Z,101372.20
2018-06-21T21:27:35.153Z,101379.17
2018-06-21T21:30:03.951Z,101376.16
2018-06-21T21:32:32.448Z,101386.59
2018-06-21T21:35:00.849Z,101383.12
2018-06-21T21:37:29.589Z,101377.92
2018-06-21T21:40:01.312Z,101378.36
2018-06-21T21:42:30.806Z,101383.56
2018-06-21T21:44:59.417Z,101377.47
2018-06-21T21:47:27.922Z,101376.19
2018-06-21T21:49:56.545Z,101378.37
2018-06-21T21:52:25.157Z,101373.16
2018-06-21T21:54:53.680Z,101370.11
2018-06-21T21:57:23.378Z,101371.39
2018-06-21T21:59:51.829Z,101367.05
2018-06-21T22:02:21.497Z,101367.92
2018-06-21T22:04:49.964Z,101374.47
2018-06-21T22:07:18.630Z,101376.20
2018-06-21T22:09:47.013Z,101373.61
2018-06-21T22:12:15.413Z,101375.38
2018-06-21T22:14:43.825Z,101370.57
2018-06-21T22:17:12.307Z,101368.84
2018-06-21T22:19:40.700Z,101369.72
2018-06-21T22:22:09.109Z,101367.12
2018-06-21T22:24:37.577Z,101354.52
2018-06-21T22:27:06.194Z,101368.00
2018-06-21T22:29:34.608Z,101363.20
2018-06-21T22:32:03.034Z,101360.58
2018-06-21T22:34:31.440Z,101363.63
2018-06-21T22:37:00.228Z,101358.41
2018-06-21T22:39:28.705Z,101357.95
2018-06-21T22:41:57.097Z,101362.75
2018-06-21T22:44:25.480Z,101360.11
2018-06-21T22:46:54.122Z,101359.23
2018-06-21T22:49:22.495Z,101357.91
2018-06-21T22:51:50.912Z,101353.14
2018-06-21T22:54:19.329Z,101351.34
2018-06-21T22:56:47.808Z,101349.60
2018-06-21T22:59:16.298Z,101349.62
2018-06-21T23:01:44.675Z,101346.16
2018-06-21T23:04:13.212Z,101349.20
2018-06-21T23:06:41.688Z,101340.94
2018-06-21T23:09:10.065Z,101346.16
2018-06-21T23:11:38.438Z,101347.03
2018-06-21T23:14:07.389Z,101348.75
2018-06-21T23:16:35.838Z,101338.32
2018-06-21T23:19:15.605Z,101337.86
2018-06-21T23:21:44.076Z,101340.91
2018-06-21T23:24:12.516Z,101344.38
2018-06-21T23:26:41.024Z,101346.98
2018-06-21T23:29:09.529Z,101347.88
2018-06-21T23:31:37.941Z,101348.31
2018-06-21T23:34:06.288Z,101352.27
2018-06-21T23:36:34.800Z,101349.22
2018-06-21T23:39:03.372Z,101345.30
2018-06-21T23:41:31.848Z,101353.17
2018-06-21T23:44:00.791Z,101353.62
2018-06-21T23:46:29.173Z,101348.39
2018-06-21T23:48:57.637Z,101357.09
2018-06-21T23:51:26.112Z,101355.34
2018-06-21T23:53:54.554Z,101359.26
2018-06-21T23:56:23.896Z,101343.18
2018-06-21T23:58:52.513Z,101345.34
